createdAt,value
2018-04-27T00:02:03.348Z,14.07
2018-04-27T00:04:30.142Z,14.05
2018-04-27T00:06:56.990Z,13.73
2018-04-27T00:09:23.606Z,13.52
2018-04-27T00:11:50.262Z,14.13
2018-04-27T00:14:16.978Z,12.85
2018-04-27T00:16:44.456Z,12.70
2018-04-27T00:19:11.126Z,13.20
2018-04-27T00:21:37.766Z,13.10
2018-04-27T00:24:04.451Z,14.50
2018-04-27T00:26:31.126Z,15.43
2018-04-27T00:28:57.799Z,14.73
2018-04-27T00:31:25.192Z,15.15
2018-04-27T00:33:51.902Z,15.13
2018-04-27T00:36:19.269Z,14.05
2018-04-27T00:38:46.640Z,13.80
2018-04-27T00:41:13.289Z,13.90
2018-04-27T00:43:40.158Z,14.77
2018-04-27T00:46:06.826Z,14.38
2018-04-27T00:48:33.503Z,14.75
2018-04-27T00:51:00.174Z,14.98
2018-04-27T00:53:26.807Z,14.60
2018-04-27T00:55:53.475Z,15.52
2018-04-27T00:58:20.845Z,15.27
2018-04-27T01:00:48.374Z,14.85
2018-04-27T01:03:15.013Z,15.63
2018-04-27T01:05:41.649Z,14.35
2018-04-27T01:08:08.325Z,16.50
2018-04-27T01:10:34.998Z,15.75
2018-04-27T01:13:02.435Z,15.10
2018-04-27T01:15:29.090Z,16.15
2018-04-27T01:17:55.854Z,14.95
2018-04-27T01:20:22.534Z,15.55
2018-04-27T01:22:49.954Z,14.90
2018-04-27T01:25:16.608Z,16.08
2018-04-27T01:27:43.279Z,15.18
2018-04-27T01:30:10.032Z,15.38
2018-04-27T01:32:37.187Z,15.50
2018-04-27T01:35:03.859Z,15.73
2018-04-27T01:37:30.557Z,16.23
2018-04-27T01:39:57.258Z,16.35
2018-04-27T01:42:24.010Z,15.18
2018-04-27T01:44:51.770Z,14.98
2018-04-27T01:47:18.484Z,15.68
2018-04-27T01:49:46.718Z,17.00
2018-04-27T01:52:13.386Z,15.98
2018-04-27T01:54:40.051Z,14.70
2018-04-27T01:57:07.628Z,15.70
2018-04-27T01:59:35.019Z,16.60
2018-04-27T02:02:01.669Z,14.93
2018-04-27T02:04:29.867Z,14.68
2018-04-27T02:06:56.539Z,14.82
2018-04-27T02:09:23.264Z,15.18
2018-04-27T02:11:49.926Z,15.43
2018-04-27T02:14:16.607Z,15.35
2018-04-27T02:16:44.133Z,16.25
2018-04-27T02:19:10.850Z,15.25
2018-04-27T02:21:37.518Z,15.30
2018-04-27T02:24:04.176Z,16.23
2018-04-27T02:26:30.868Z,16.58
2018-04-27T02:28:58.287Z,16.30
2018-04-27T02:31:24.967Z,14.80
2018-04-27T02:33:52.440Z,13.88
2018-04-27T02:36:19.177Z,15.20
2018-04-27T02:38:46.029Z,15.02
2018-04-27T02:41:12.904Z,14.45
2018-04-27T02:43:39.611Z,15.00
2018-04-27T02:46:06.300Z,13.23
2018-04-27T02:48:33.767Z,14.10
2018-04-27T02:51:00.537Z,15.18
2018-04-27T02:53:27.296Z,15.20
2018-04-27T02:55:53.954Z,14.60
2018-04-27T02:58:21.424Z,16.00
2018-04-27T03:00:48.120Z,15.38
2018-04-27T03:03:14.751Z,14.90
2018-04-27T03:05:41.695Z,15.60
2018-04-27T03:08:08.379Z,15.10
2018-04-27T03:10:35.173Z,14.90
2018-04-27T03:13:01.817Z,14.43
2018-04-27T03:15:28.530Z,16.42
2018-04-27T03:17:55.949Z,14.93
2018-04-27T03:20:22.723Z,15.38
2018-04-27T03:22:50.103Z,15.30
2018-04-27T03:25:16.830Z,15.98
2018-04-27T03:27:43.488Z,15.30
2018-04-27T03:30:10.166Z,15.10
2018-04-27T03:32:38.342Z,15.43
2018-04-27T03:35:05.025Z,16.10
2018-04-27T03:37:31.683Z,14.18
2018-04-27T03:39:58.349Z,16.40
2018-04-27T03:42:25.074Z,13.80
2018-04-27T03:44:51.732Z,15.20
2018-04-27T03:47:18.420Z,15.07
2018-04-27T03:49:45.164Z,16.20
2018-04-27T03:52:12.030Z,15.30
2018-04-27T03:54:38.707Z,16.62
2018-04-27T03:57:06.133Z,16.40
2018-04-27T03:59:45.030Z,16.25
2018-04-27T04:05:29.043Z,16.08
2018-04-27T04:07:55.722Z,15.85
2018-04-27T04:10:22.414Z,15.82
2018-04-27T04:12:49.190Z,17.30
2018-04-27T04:15:15.851Z,17.52
2018-04-27T04:17:42.703Z,17.73
2018-04-27T04:20:09.426Z,16.35
2018-04-27T04:22:36.170Z,16.95
2018-04-27T04:25:02.909Z,17.05
2018-04-27T04:27:29.557Z,14.40
2018-04-27T04:29:56.227Z,15.95
2018-04-27T04:32:22.994Z,15.32
2018-04-27T04:34:50.448Z,16.12
2018-04-27T04:37:17.936Z,16.80
2018-04-27T04:39:44.611Z,15.27
2018-04-27T04:42:11.284Z,16.35
2018-04-27T04:44:37.971Z,15.60
2018-04-27T04:47:04.916Z,14.82
2018-04-27T04:49:31.705Z,16.37
2018-04-27T04:51:59.269Z,14.98
2018-04-27T04:54:26.040Z,16.05
2018-04-27T04:56:52.687Z,14.93
2018-04-27T04:59:19.427Z,14.10
2018-04-27T05:01:46.113Z,15.75
2018-04-27T05:04:12.871Z,14.30
2018-04-27T05:06:39.537Z,14.10
2018-04-27T05:09:06.270Z,12.98
2018-04-27T05:11:32.924Z,14.87
2018-04-27T05:13:59.792Z,14.43
2018-04-27T05:16:26.595Z,13.00
2018-04-27T05:18:56.364Z,13.65
2018-04-27T05:21:24.170Z,13.90
2018-04-27T05:23:50.814Z,13.98
2018-04-27T05:26:17.508Z,14.20
2018-04-27T05:28:44.951Z,13.82
2018-04-27T05:31:22.802Z,13.93
2018-04-27T05:33:49.539Z,14.80
2018-04-27T05:36:16.355Z,14.15
2018-04-27T05:38:43.121Z,14.50
2018-04-27T05:41:11.477Z,13.60
2018-04-27T05:43:38.251Z,13.57
2018-04-27T05:46:05.013Z,13.25
2018-04-27T05:48:31.926Z,13.13
2018-04-27T05:50:59.719Z,12.70
2018-04-27T05:53:26.427Z,12.97
2018-04-27T05:55:53.178Z,11.90
2018-04-27T05:58:20.014Z,12.13
2018-04-27T06:00:46.676Z,11.77
2018-04-27T06:03:13.386Z,11.03
2018-04-27T06:05:40.112Z,10.60
2018-04-27T06:08:06.881Z,10.60
2018-04-27T06:10:33.574Z,10.23
2018-04-27T06:13:01.068Z,10.33
2018-04-27T06:15:27.801Z,10.40
2018-04-27T06:17:54.503Z,8.30
2018-04-27T06:20:21.242Z,8.90
2018-04-27T06:22:48.817Z,8.63
2018-04-27T06:25:16.207Z,8.80
2018-04-27T06:27:42.893Z,9.13
2018-04-27T06:30:10.403Z,8.50
2018-04-27T06:32:37.909Z,8.07
2018-04-27T06:35:04.587Z,8.50
2018-04-27T06:37:31.403Z,8.10
2018-04-27T06:39:58.080Z,7.33
2018-04-27T06:42:24.820Z,8.27
2018-04-27T06:44:51.860Z,7.93
2018-04-27T06:47:18.616Z,7.50
2018-04-27T06:49:45.337Z,7.77
2018-04-27T06:52:12.101Z,6.50
2018-04-27T06:54:38.779Z,7.13
2018-04-27T06:57:06.235Z,6.23
2018-04-27T06:59:33.716Z,7.47
2018-04-27T07:02:00.504Z,6.50
2018-04-27T07:04:27.306Z,6.27
2018-04-27T07:06:54.259Z,5.60
2018-04-27T07:09:21.997Z,7.50
2018-04-27T07:11:48.716Z,6.53
2018-04-27T07:14:16.231Z,7.33
2018-04-27T07:16:43.064Z,6.40
2018-04-27T07:19:09.719Z,6.03
2018-04-27T07:21:36.543Z,6.23
2018-04-27T07:24:03.357Z,6.40
2018-04-27T07:26:30.124Z,6.33
2018-04-27T07:28:56.803Z,6.87
2018-04-27T07:31:25.013Z,6.10
2018-04-27T07:33:51.737Z,7.23
2018-04-27T07:36:19.176Z,6.77
2018-04-27T07:38:45.916Z,5.90
2018-04-27T07:41:12.715Z,5.77
2018-04-27T07:43:39.432Z,6.50
2018-04-27T07:46:06.261Z,5.53
2018-04-27T07:48:33.107Z,6.17
2018-04-27T07:50:59.898Z,6.20
2018-04-27T07:53:26.639Z,6.07
2018-04-27T07:55:53.407Z,5.87
2018-04-27T07:58:20.991Z,6.00
2018-04-27T08:00:47.738Z,5.30
2018-04-27T08:03:14.706Z,5.97
2018-04-27T08:05:41.452Z,5.30
2018-04-27T08:08:08.185Z,5.33
2018-04-27T08:10:35.141Z,5.57
2018-04-27T08:13:03.508Z,5.17
2018-04-27T08:15:30.270Z,5.43
2018-04-27T08:17:57.089Z,5.97
2018-04-27T08:20:25.726Z,5.13
2018-04-27T08:22:52.415Z,5.00
2018-04-27T08:25:19.596Z,5.07
2018-04-27T08:27:47.143Z,5.03
2018-04-27T08:30:13.949Z,5.03
2018-04-27T08:32:40.805Z,5.10
2018-04-27T08:35:07.591Z,5.27
2018-04-27T08:37:34.348Z,5.10
2018-04-27T08:40:01.776Z,5.00
2018-04-27T08:42:28.474Z,5.27
2018-04-27T08:44:55.195Z,5.07
2018-04-27T08:47:22.405Z,4.80
2018-04-27T08:49:49.084Z,4.87
2018-04-27T08:52:15.817Z,4.77
2018-04-27T08:54:43.823Z,4.60
2018-04-27T08:57:10.689Z,4.57
2018-04-27T08:59:37.471Z,4.83
2018-04-27T09:02:04.347Z,5.37
2018-04-27T09:04:31.088Z,4.63
2018-04-27T09:06:58.149Z,4.60
2018-04-27T09:09:24.977Z,5.00
2018-04-27T09:11:51.686Z,4.00
2018-04-27T09:14:19.141Z,3.80
2018-04-27T09:16:46.564Z,4.30
2018-04-27T09:19:13.338Z,4.47
2018-04-27T09:21:40.790Z,4.40
2018-04-27T09:24:07.581Z,4.10
2018-04-27T09:26:34.285Z,5.00
2018-04-27T09:29:00.979Z,5.07
2018-04-27T09:31:27.698Z,4.40
2018-04-27T09:33:54.349Z,4.50
2018-04-27T09:36:21.045Z,4.53
2018-04-27T09:38:47.872Z,4.20
2018-04-27T09:41:15.499Z,3.87
2018-04-27T09:43:42.987Z,3.20
2018-04-27T09:46:09.744Z,3.30
2018-04-27T09:48:36.709Z,3.67
2018-04-27T09:51:03.704Z,2.47
2018-04-27T09:53:30.427Z,2.40
2018-04-27T09:55:57.117Z,2.10
2018-04-27T09:58:23.974Z,1.60
2018-04-27T10:00:50.695Z,1.90
2018-04-27T10:03:17.890Z,2.17
2018-04-27T10:05:44.603Z,2.73
2018-04-27T10:08:11.342Z,2.00
2018-04-27T10:10:38.186Z,1.53
2018-04-27T10:13:04.864Z,1.80
2018-04-27T10:15:31.612Z,3.27
2018-04-27T10:17:58.318Z,1.97
2018-04-27T10:20:25.063Z,2.20
2018-04-27T10:22:51.885Z,2.03
2018-04-27T10:25:18.634Z,2.00
2018-04-27T10:27:45.413Z,2.43
2018-04-27T10:30:12.064Z,2.30
2018-04-27T10:32:39.506Z,2.40
2018-04-27T10:35:06.208Z,2.00
2018-04-27T10:37:32.851Z,2.40
2018-04-27T10:39:59.565Z,1.93
2018-04-27T10:42:26.220Z,1.90
2018-04-27T10:44:53.157Z,2.30
2018-04-27T10:47:19.941Z,2.10
2018-04-27T10:49:47.473Z,2.30
2018-04-27T10:52:14.267Z,2.30
2018-04-27T10:54:41.041Z,2.27
2018-04-27T10:57:07.878Z,1.97
2018-04-27T10:59:34.639Z,1.97
2018-04-27T11:02:01.462Z,1.73
2018-04-27T11:04:28.211Z,1.90
2018-04-27T11:06:55.073Z,1.93
2018-04-27T11:09:21.931Z,2.10
2018-04-27T11:11:48.667Z,1.77
2018-04-27T11:14:15.438Z,1.90
2018-04-27T11:16:42.287Z,2.23
2018-04-27T11:19:09.035Z,1.60
2018-04-27T11:21:35.794Z,1.73
2018-04-27T11:24:02.640Z,1.30
2018-04-27T11:26:29.477Z,1.83
2018-04-27T11:28:56.178Z,1.60
2018-04-27T11:31:22.840Z,1.43
2018-04-27T11:33:49.519Z,1.70
2018-04-27T11:36:16.237Z,1.50
2018-04-27T11:38:42.973Z,1.30
2018-04-27T11:41:09.637Z,1.57
2018-04-27T11:43:36.311Z,1.87
2018-04-27T11:46:03.878Z,1.70
2018-04-27T11:48:31.423Z,2.00
2018-04-27T11:50:58.935Z,2.10
2018-04-27T11:53:25.757Z,1.37
2018-04-27T11:55:52.609Z,1.30
2018-04-27T11:58:19.433Z,1.30
2018-04-27T12:00:47.255Z,1.80
2018-04-27T12:03:14.877Z,2.20
2018-04-27T12:05:41.686Z,2.07
2018-04-27T12:08:08.425Z,1.90
2018-04-27T12:10:35.273Z,1.40
2018-04-27T12:13:01.999Z,1.37
2018-04-27T12:15:28.756Z,1.53
2018-04-27T12:17:55.502Z,1.43
2018-04-27T12:20:22.376Z,1.50
2018-04-27T12:22:49.104Z,1.60
2018-04-27T12:25:15.779Z,1.73
2018-04-27T12:27:42.476Z,1.47
2018-04-27T12:30:09.194Z,1.63
2018-04-27T12:32:36.684Z,1.90
2018-04-27T12:35:03.353Z,1.73
2018-04-27T12:37:30.105Z,1.50
2018-04-27T12:39:58.055Z,1.47
2018-04-27T12:42:24.781Z,2.07
2018-04-27T12:44:51.515Z,1.77
2018-04-27T12:47:18.339Z,1.43
2018-04-27T12:49:45.069Z,1.50
2018-04-27T12:52:11.904Z,1.60
2018-04-27T12:54:39.862Z,2.00
2018-04-27T12:57:07.324Z,1.53
2018-04-27T12:59:34.098Z,1.67
2018-04-27T13:02:00.835Z,1.73
2018-04-27T13:04:27.487Z,1.70
2018-04-27T13:06:54.226Z,1.70
2018-04-27T13:09:21.001Z,1.87
2018-04-27T13:11:48.500Z,1.40
2018-04-27T13:14:15.298Z,1.60
2018-04-27T13:16:42.064Z,1.80
2018-04-27T13:19:08.834Z,1.70
2018-04-27T13:21:36.259Z,1.50
2018-04-27T13:24:02.930Z,1.50
2018-04-27T13:26:29.732Z,1.57
2018-04-27T13:28:56.423Z,1.90
2018-04-27T13:31:23.141Z,1.90
2018-04-27T13:33:49.856Z,1.30
2018-04-27T13:36:16.585Z,1.60
2018-04-27T13:38:43.508Z,1.80
2018-04-27T13:41:10.260Z,2.00
2018-04-27T13:43:36.927Z,1.70
2018-04-27T13:46:04.403Z,1.60
2018-04-27T13:48:31.144Z,1.73
2018-04-27T13:50:58.044Z,1.87
2018-04-27T13:53:25.625Z,1.47
2018-04-27T13:55:52.830Z,1.83
2018-04-27T13:58:19.598Z,1.73
2018-04-27T14:00:47.072Z,1.90
2018-04-27T14:03:14.622Z,1.90
2018-04-27T14:05:42.183Z,1.80
2018-04-27T14:08:08.950Z,2.03
2018-04-27T14:10:35.697Z,1.90
2018-04-27T14:13:02.453Z,11.13
2018-04-27T14:15:29.586Z,2.20
2018-04-27T14:17:56.348Z,2.33
2018-04-27T14:20:23.100Z,2.00
2018-04-27T14:22:49.809Z,2.33
2018-04-27T14:25:16.467Z,2.03
2018-04-27T14:27:43.191Z,6.70
2018-04-27T14:30:09.928Z,2.07
2018-04-27T14:32:36.619Z,2.20
2018-04-27T14:35:03.400Z,2.30
2018-04-27T14:37:30.081Z,1.97
2018-04-27T14:39:56.849Z,1.77
2018-04-27T14:42:24.696Z,1.60
2018-04-27T14:44:51.357Z,1.63
2018-04-27T14:47:18.779Z,1.40
2018-04-27T14:49:47.000Z,1.50
2018-04-27T14:52:13.663Z,1.77
2018-04-27T14:54:40.875Z,1.20
2018-04-27T14:57:07.748Z,1.30
2018-04-27T14:59:36.553Z,1.43
2018-04-27T15:02:03.311Z,1.43
2018-04-27T15:04:30.816Z,1.33
2018-04-27T15:06:58.263Z,1.60
2018-04-27T15:09:25.676Z,1.60
2018-04-27T15:11:52.454Z,1.50
2018-04-27T15:14:19.181Z,1.40
2018-04-27T15:16:45.872Z,1.37
2018-04-27T15:19:12.601Z,1.43
2018-04-27T15:21:39.301Z,1.30
2018-04-27T15:24:06.035Z,1.57
2018-04-27T15:26:32.786Z,1.33
2018-04-27T15:28:59.488Z,1.40
2018-04-27T15:31:26.174Z,1.40
2018-04-27T15:33:53.761Z,1.07
2018-04-27T15:36:20.478Z,1.83
2018-04-27T15:38:48.006Z,1.60
2018-04-27T15:41:15.527Z,1.63
2018-04-27T15:43:42.247Z,1.37
2018-04-27T15:46:09.004Z,1.40
2018-04-27T15:48:37.412Z,2.20
2018-04-27T15:51:04.121Z,1.93
2018-04-27T15:53:31.061Z,1.60
2018-04-27T15:55:58.005Z,1.27
2018-04-27T15:58:24.676Z,1.30
2018-04-27T16:00:51.610Z,1.47
2018-04-27T16:03:18.343Z,1.40
2018-04-27T16:05:45.137Z,1.30
2018-04-27T16:08:11.884Z,1.40
2018-04-27T16:10:38.749Z,1.33
2018-04-27T16:13:14.717Z,1.50
2018-04-27T16:15:42.471Z,1.57
2018-04-27T16:18:09.227Z,1.20
2018-04-27T16:20:35.987Z,1.10
2018-04-27T16:23:03.507Z,1.70
2018-04-27T16:25:30.350Z,1.40
2018-04-27T16:27:57.361Z,1.70
2018-04-27T16:30:24.142Z,1.67
2018-04-27T16:32:50.981Z,1.50
2018-04-27T16:35:18.308Z,1.40
2018-04-27T16:37:45.055Z,1.50
2018-04-27T16:40:11.817Z,1.30
2018-04-27T16:42:38.627Z,1.40
2018-04-27T16:45:06.129Z,1.50
2018-04-27T16:47:32.815Z,1.50
2018-04-27T16:50:00.312Z,1.73
2018-04-27T16:52:27.257Z,1.60
2018-04-27T16:54:53.916Z,1.30
2018-04-27T16:57:20.693Z,1.30
2018-04-27T16:59:48.259Z,1.80
2018-04-27T17:02:15.758Z,1.60
2018-04-27T17:04:42.516Z,1.60
2018-04-27T17:07:09.403Z,1.37
2018-04-27T17:09:36.956Z,1.80
2018-04-27T17:12:03.662Z,1.80
2018-04-27T17:14:31.331Z,1.43
2018-04-27T17:16:58.108Z,2.00
2018-04-27T17:19:25.041Z,1.43
2018-04-27T17:21:51.788Z,1.60
2018-04-27T17:24:18.667Z,1.50
2018-04-27T17:26:45.709Z,1.87
2018-04-27T17:29:12.474Z,1.50
2018-04-27T17:31:39.226Z,2.33
2018-04-27T17:34:05.994Z,1.77
2018-04-27T17:36:33.440Z,1.40
2018-04-27T17:39:00.214Z,1.57
2018-04-27T17:41:26.949Z,2.00
2018-04-27T17:43:53.716Z,2.00
2018-04-27T17:46:20.455Z,1.70
2018-04-27T17:48:47.652Z,1.83
2018-04-27T17:51:15.462Z,1.70
2018-04-27T17:53:42.420Z,1.70
2018-04-27T17:56:09.648Z,1.53
2018-04-27T17:58:36.555Z,1.43
2018-04-27T18:01:04.015Z,2.00
2018-04-27T18:03:32.030Z,1.50
2018-04-27T18:05:58.752Z,1.77
2018-04-27T18:08:25.920Z,1.67
2018-04-27T18:10:53.820Z,1.60
2018-04-27T18:13:20.507Z,1.90
2018-04-27T18:15:47.368Z,1.80
2018-04-27T18:18:14.165Z,1.70
2018-04-27T18:20:41.106Z,1.80
2018-04-27T18:23:07.870Z,1.80
2018-04-27T18:25:34.737Z,2.10
2018-04-27T18:28:01.523Z,1.93
2018-04-27T18:30:30.266Z,1.73
2018-04-27T18:32:57.450Z,2.10
2018-04-27T18:35:24.463Z,1.70
2018-04-27T18:37:52.169Z,2.27
2018-04-27T18:40:19.171Z,2.10
2018-04-27T18:42:45.929Z,1.43
2018-04-27T18:45:13.160Z,1.50
2018-04-27T18:47:40.776Z,2.03
2018-04-27T18:50:07.546Z,1.80
2018-04-27T18:52:34.388Z,1.87
2018-04-27T18:55:01.394Z,1.87
2018-04-27T18:57:29.112Z,1.77
2018-04-27T18:59:57.185Z,1.63
2018-04-27T19:02:24.035Z,1.70
2018-04-27T19:04:51.278Z,2.00
2018-04-27T19:07:19.146Z,1.90
2018-04-27T19:09:46.071Z,2.70
2018-04-27T19:12:12.868Z,1.77
2018-04-27T19:14:40.471Z,1.70
2018-04-27T19:17:07.335Z,2.17
2018-04-27T19:19:34.202Z,1.80
2018-04-27T19:22:01.963Z,1.93
2018-04-27T19:24:28.735Z,2.00
2018-04-27T19:26:55.504Z,1.80
2018-04-27T19:29:22.376Z,1.90
2018-04-27T19:31:49.311Z,1.83
2018-04-27T19:34:16.123Z,1.83
2018-04-27T19:36:43.627Z,1.90
2018-04-27T19:39:10.453Z,2.90
2018-04-27T19:41:37.297Z,2.43
2018-04-27T19:44:04.136Z,1.90
2018-04-27T19:46:30.899Z,1.93
2018-04-27T19:48:57.642Z,2.47
2018-04-27T19:51:24.453Z,2.30
2018-04-27T19:53:51.813Z,2.20
2018-04-27T19:56:19.164Z,2.13
2018-04-27T19:58:46.882Z,2.10
2018-04-27T20:01:15.785Z,2.20
2018-04-27T20:03:42.867Z,2.43
2018-04-27T20:06:10.739Z,2.60
2018-04-27T20:08:37.556Z,2.60
2018-04-27T20:11:06.339Z,2.40
2018-04-27T20:13:33.922Z,2.97
2018-04-27T20:16:00.949Z,2.83
2018-04-27T20:18:29.319Z,2.43
2018-04-27T20:20:57.539Z,2.57
2018-04-27T20:23:25.718Z,3.40
2018-04-27T20:25:54.542Z,2.90
2018-04-27T20:28:22.147Z,2.37
2018-04-27T20:30:49.476Z,2.50
2018-04-27T20:33:25.094Z,2.67
2018-04-27T20:35:55.522Z,3.47
2018-04-27T20:38:30.831Z,3.20
2018-04-27T20:40:58.478Z,2.47
2018-04-27T20:43:26.083Z,2.90
2018-04-27T20:45:54.575Z,2.60
2018-04-27T20:48:24.124Z,2.67
2018-04-27T20:50:57.559Z,2.90
2018-04-27T20:53:25.386Z,2.93
2018-04-27T20:55:53.355Z,2.43
2018-04-27T20:58:20.176Z,3.00
2018-04-27T21:00:47.113Z,3.20
2018-04-27T21:03:13.937Z,2.90
2018-04-27T21:05:40.819Z,2.43
2018-04-27T21:08:07.588Z,2.60
2018-04-27T21:10:35.168Z,2.90
2018-04-27T21:13:02.081Z,2.60
2018-04-27T21:15:28.910Z,2.70
2018-04-27T21:17:55.698Z,3.10
2018-04-27T21:20:28.365Z,2.90
2018-04-27T21:22:56.775Z,2.97
2018-04-27T21:25:32.326Z,2.57
2018-04-27T21:27:59.116Z,2.60
2018-04-27T21:30:25.922Z,3.20
2018-04-27T21:33:01.687Z,3.00
2018-04-27T21:38:45.411Z,3.13
2018-04-27T21:41:27.908Z,2.97
2018-04-27T21:44:07.784Z,3.47
2018-04-27T21:46:34.496Z,3.23
2018-04-27T21:49:07.227Z,3.40
2018-04-27T21:51:33.947Z,3.50
2018-04-27T21:54:05.036Z,3.43
2018-04-27T21:56:32.625Z,3.27
2018-04-27T21:58:59.410Z,3.17
2018-04-27T22:01:26.217Z,3.57
2018-04-27T22:03:57.694Z,3.50
2018-04-27T22:06:24.643Z,3.00
2018-04-27T22:09:07.220Z,3.23
2018-04-27T22:11:44.877Z,2.87
2018-04-27T22:14:13.457Z,3.37
2018-04-27T22:16:41.942Z,3.67
2018-04-27T22:19:20.248Z,3.23
2018-04-27T22:21:47.038Z,3.10
2018-04-27T22:24:13.884Z,3.17
2018-04-27T22:26:45.063Z,3.20
2018-04-27T22:29:21.530Z,3.57
2018-04-27T22:31:48.329Z,3.30
2018-04-27T22:34:15.305Z,3.10
2018-04-27T22:36:45.001Z,3.23
2018-04-27T22:39:19.966Z,3.57
2018-04-27T22:41:56.526Z,3.33
2018-04-27T22:44:24.176Z,3.13
2018-04-27T22:46:55.053Z,3.07
2018-04-27T22:49:22.533Z,3.40
2018-04-27T22:51:49.283Z,3.50
2018-04-27T22:57:33.047Z,3.57
2018-04-27T23:00:08.916Z,3.50
2018-04-27T23:02:35.692Z,3.40
2018-04-27T23:05:04.354Z,3.30
2018-04-27T23:07:31.154Z,3.33
2018-04-27T23:09:57.962Z,3.60
2018-04-27T23:12:25.527Z,3.50
2018-04-27T23:14:53.160Z,3.80
2018-04-27T23:17:19.912Z,3.83
2018-04-27T23:19:48.861Z,3.67
2018-04-27T23:22:27.926Z,4.37
2018-04-27T23:28:02.154Z,3.43
2018-04-27T23:30:31.898Z,3.57
2018-04-27T23:32:59.658Z,3.70
2018-04-27T23:35:26.569Z,3.40
2018-04-27T23:37:53.338Z,3.37
2018-04-27T23:40:20.075Z,4.53
2018-04-27T23:42:47.785Z,3.60
2018-04-27T23:45:14.549Z,3.47
2018-04-27T23:47:41.318Z,3.87
2018-04-27T23:50:14.046Z,3.70
2018-04-27T23:52:40.826Z,3.80
2018-04-27T23:55:07.580Z,3.93
2018-04-27T23:57:34.567Z,4.30
